PWSweather.com
Personal Weather Stations
Station Observations
PENICUIKWS
PenicuikGB

PenicuikGB

Lat: 55.830932, Lon: -3.224533000000065

Elevation: 166

Station Type: Fine Offset

http://weather.penicuik.org

Latest ConditionsUpdated 6:15:01 AM GMT Thursday, Mar 21, 2019
Currently Today's Max Today's Min Today's Average
Temperature 49.6°F9.8°C 52.5°F11.4°C 49.3°F9.6°C 51.2°F10.7°C
Dew Point 45.9°F7.7°C 49.1°F9.5°C 45.6°F7.6°C 46.9°F8.3°C
Winds 4.7 mph E7.6 kmh E 5.8 mph -9.3 kmh - - 3.9 mph 6.3 kmh
Wind Gusts 9.2 mph14.8 kmh 12.1 mph19.5 kmh - -
Humidity 87% 89% 82% 85%
Pressure 31.18 in1055.9 mb 31.18 in1055.9 mb 31.13 in1054.2 mb -
Precipitation - 0.01 in0.3 mm - -
Hour Temp Dew Point Humidity Winds Wind Gusts Pressure Precip Precip Rate Daily Precip Total
06:15 AM 49.6°F9.8°C 45.9°F7.7°C 87% 4.7 mph E7.6 kmh E 9.2 mph14.8 kmh 31.18 in1055.9 mb 0.00 in0.0 mm 0.00 in0.0 mm 0.01 in0.3 mm
06:00 AM 49.3°F9.6°C 45.6°F7.6°C 87% 3.2 mph NW5.1 kmh NW 6.0 mph9.7 kmh 31.17 in1055.5 mb 0.00 in0.0 mm 0.00 in0.0 mm 0.01 in0.3 mm
05:45 AM 49.3°F9.6°C 45.6°F7.6°C 87% 2.6 mph N4.2 kmh N 5.4 mph8.7 kmh 31.18 in1055.9 mb 0.00 in0.0 mm 0.00 in0.0 mm 0.01 in0.3 mm
05:30 AM 49.8°F9.9°C 46.1°F7.8°C 87% 3.2 mph E5.1 kmh E 6.0 mph9.7 kmh 31.17 in1055.5 mb 0.00 in0.0 mm 0.00 in0.0 mm 0.01 in0.3 mm
05:15 AM 50.0°F10.0°C 46.3°F7.9°C 87% 3.3 mph WNW5.3 kmh WNW 5.4 mph8.7 kmh 31.17 in1055.5 mb 0.00 in0.0 mm 0.00 in0.0 mm 0.01 in0.3 mm
05:00 AM 50.2°F10.1°C 46.5°F8.1°C 87% 3.1 mph W5.0 kmh W 4.5 mph7.2 kmh 31.17 in1055.5 mb 0.00 in0.0 mm 0.00 in0.0 mm 0.01 in0.3 mm
04:45 AM 50.4°F10.2°C 46.9°F8.3°C 88% 3.3 mph WSW5.3 kmh WSW 5.4 mph8.7 kmh 31.17 in1055.5 mb 0.00 in0.0 mm 0.00 in0.0 mm 0.01 in0.3 mm
04:30 AM 50.5°F10.3°C 47.1°F8.4°C 88% 3.6 mph WSW5.8 kmh WSW 6.0 mph9.7 kmh 31.17 in1055.5 mb 0.00 in0.0 mm 0.00 in0.0 mm 0.01 in0.3 mm
04:15 AM 50.5°F10.3°C 47.4°F8.6°C 89% 4.1 mph SW6.6 kmh SW 6.0 mph9.7 kmh 31.16 in1055.2 mb 0.01 in0.3 mm 0.00 in0.0 mm 0.01 in0.3 mm
04:00 AM 50.5°F10.3°C 47.1°F8.4°C 88% 5.1 mph SE8.2 kmh SE 8.3 mph13.4 kmh 31.16 in1055.2 mb 0.01 in0.3 mm 0.00 in0.0 mm 0.01 in0.3 mm
03:45 AM 50.7°F10.4°C 47.0°F8.3°C 87% 4.0 mph SW6.4 kmh SW 6.0 mph9.7 kmh 31.16 in1055.2 mb 0.01 in0.3 mm 0.00 in0.0 mm 0.01 in0.3 mm
03:30 AM 51.1°F10.6°C 47.4°F8.6°C 87% 3.6 mph NW5.8 kmh NW 5.4 mph8.7 kmh 31.16 in1055.2 mb 0.01 in0.3 mm 0.04 in1.0 mm 0.01 in0.3 mm
03:15 AM 51.3°F10.7°C 46.9°F8.3°C 85% 3.5 mph SW5.6 kmh SW 6.9 mph11.1 kmh 31.16 in1055.2 mb 0.00 in0.0 mm 0.00 in0.0 mm 0.00 in0.0 mm
03:00 AM 51.6°F10.9°C 46.9°F8.3°C 84% 3.8 mph S6.1 kmh S 7.6 mph12.2 kmh 31.16 in1055.2 mb 0.00 in0.0 mm 0.00 in0.0 mm 0.00 in0.0 mm
02:45 AM 52.2°F11.2°C 46.8°F8.2°C 82% 5.8 mph NW9.3 kmh NW 10.7 mph17.2 kmh 31.16 in1055.2 mb 0.00 in0.0 mm 0.00 in0.0 mm 0.00 in0.0 mm
02:30 AM 52.2°F11.2°C 46.8°F8.2°C 82% 3.8 mph S6.1 kmh S 6.9 mph11.1 kmh 31.16 in1055.2 mb 0.00 in0.0 mm 0.00 in0.0 mm 0.00 in0.0 mm
02:15 AM 52.2°F11.2°C 46.8°F8.2°C 82% 3.6 mph SE5.8 kmh SE 8.3 mph13.4 kmh 31.16 in1055.2 mb 0.00 in0.0 mm 0.00 in0.0 mm 0.00 in0.0 mm
02:00 AM 52.0°F11.1°C 46.7°F8.2°C 82% 4.2 mph WSW6.8 kmh WSW 12.1 mph19.5 kmh 31.16 in1055.2 mb 0.00 in0.0 mm 0.00 in0.0 mm 0.00 in0.0 mm
01:45 AM 51.8°F11.0°C 46.5°F8.1°C 82% 3.2 mph NE5.1 kmh NE 4.5 mph7.2 kmh 31.15 in1054.9 mb 0.00 in0.0 mm 0.00 in0.0 mm 0.00 in0.0 mm
01:30 AM 52.0°F11.1°C 46.7°F8.2°C 82% 3.0 mph NNE4.8 kmh NNE 5.4 mph8.7 kmh 31.15 in1054.9 mb 0.00 in0.0 mm 0.00 in0.0 mm 0.00 in0.0 mm
01:15 AM 51.8°F11.0°C 46.8°F8.2°C 83% 3.5 mph SW5.6 kmh SW 6.0 mph9.7 kmh 31.16 in1055.2 mb 0.00 in0.0 mm 0.00 in0.0 mm 0.00 in0.0 mm
01:00 AM 52.0°F11.1°C 47.3°F8.5°C 84% 3.6 mph NW5.8 kmh NW 6.0 mph9.7 kmh 31.15 in1054.9 mb 0.00 in0.0 mm 0.00 in0.0 mm 0.00 in0.0 mm
12:45 AM 52.0°F11.1°C 47.3°F8.5°C 84% 3.4 mph WNW5.5 kmh WNW 9.8 mph15.8 kmh 31.15 in1054.9 mb 0.00 in0.0 mm 0.00 in0.0 mm 0.00 in0.0 mm
12:30 AM 52.3°F11.3°C 48.0°F8.9°C 85% 4.9 mph SW7.9 kmh SW 7.6 mph12.2 kmh 31.14 in1054.5 mb 0.00 in0.0 mm 0.00 in0.0 mm 0.00 in0.0 mm
12:15 AM 52.5°F11.4°C 48.5°F9.2°C 86% 5.5 mph SW8.9 kmh SW 9.2 mph14.8 kmh 31.14 in1054.5 mb 0.00 in0.0 mm 0.00 in0.0 mm 0.00 in0.0 mm
12:00 AM 52.5°F11.4°C 49.1°F9.5°C 88% 4.5 mph W7.2 kmh W 9.8 mph15.8 kmh 31.13 in1054.2 mb 0.00 in0.0 mm 0.00 in0.0 mm 0.00 in0.0 mm